createdAt,value
2023-03-07T00:00:13.415Z,89.75
2023-03-07T00:02:41.490Z,90.10
2023-03-07T00:05:09.880Z,90.21
2023-03-07T00:07:37.512Z,89.90
2023-03-07T00:10:05.654Z,89.53
2023-03-07T00:12:34.606Z,89.99
2023-03-07T00:15:02.250Z,89.84
2023-03-07T00:17:29.825Z,89.76
2023-03-07T00:19:57.502Z,89.40
2023-03-07T00:22:25.097Z,89.32
2023-03-07T00:24:52.665Z,89.39
2023-03-07T00:27:20.287Z,89.48
2023-03-07T00:29:51.049Z,89.05
2023-03-07T00:32:19.328Z,88.05
2023-03-07T00:34:47.152Z,87.80
2023-03-07T00:37:15.291Z,87.79
2023-03-07T00:39:43.104Z,87.29
2023-03-07T00:42:10.856Z,86.86
2023-03-07T00:44:38.483Z,86.82
2023-03-07T00:47:07.888Z,86.61
2023-03-07T00:49:35.661Z,86.44
2023-03-07T00:52:03.602Z,86.36
2023-03-07T00:54:31.258Z,85.08
2023-03-07T00:56:58.864Z,85.26
2023-03-07T00:59:26.476Z,84.89
2023-03-07T01:01:54.083Z,84.83
2023-03-07T01:04:23.136Z,83.74
2023-03-07T01:06:51.027Z,84.25
2023-03-07T01:09:18.580Z,84.16
2023-03-07T01:11:46.179Z,84.25
2023-03-07T01:14:13.770Z,84.01
2023-03-07T01:16:41.531Z,84.28
2023-03-07T01:19:12.447Z,84.12
2023-03-07T01:21:42.877Z,83.78
2023-03-07T01:24:14.074Z,83.88
2023-03-07T01:26:41.838Z,83.51
2023-03-07T01:29:09.815Z,84.14
2023-03-07T01:31:37.673Z,83.71
2023-03-07T01:34:05.726Z,84.10
2023-03-07T01:36:34.806Z,83.69
2023-03-07T01:39:06.666Z,84.48
2023-03-07T01:41:35.134Z,83.68
2023-03-07T01:44:06.267Z,84.24
2023-03-07T01:46:40.061Z,84.27
2023-03-07T01:49:11.247Z,83.18
2023-03-07T01:51:41.573Z,83.11
2023-03-07T01:54:12.331Z,83.28
2023-03-07T01:56:40.493Z,82.45
2023-03-07T01:59:08.332Z,82.69
2023-03-07T02:01:36.413Z,82.39
2023-03-07T02:04:07.550Z,82.73
2023-03-07T02:06:36.703Z,82.56
2023-03-07T02:09:04.726Z,81.61
2023-03-07T02:11:33.778Z,82.82
2023-03-07T02:14:01.456Z,82.79
2023-03-07T02:16:29.126Z,82.28
2023-03-07T02:18:57.060Z,82.32
2023-03-07T02:21:32.868Z,81.82
2023-03-07T02:24:03.624Z,82.07
2023-03-07T02:26:43.928Z,82.25
2023-03-07T02:29:12.002Z,81.89
2023-03-07T02:31:39.738Z,81.08
2023-03-07T02:34:19.529Z,81.54
2023-03-07T02:36:47.822Z,81.02
2023-03-07T02:39:15.590Z,80.68
2023-03-07T02:41:44.637Z,80.75
2023-03-07T02:44:12.613Z,81.11
2023-03-07T02:46:40.341Z,81.66
2023-03-07T02:49:07.929Z,80.82
2023-03-07T02:51:35.525Z,80.71
2023-03-07T02:54:03.325Z,81.17
2023-03-07T02:56:31.093Z,81.09
2023-03-07T02:59:00.103Z,81.45
2023-03-07T03:01:27.874Z,81.23
2023-03-07T03:03:56.085Z,81.20
2023-03-07T03:06:24.275Z,81.30
2023-03-07T03:08:51.938Z,81.60
2023-03-07T03:11:19.564Z,80.89
2023-03-07T03:13:47.640Z,81.21
2023-03-07T03:16:17.212Z,81.51
2023-03-07T03:18:44.964Z,81.08
2023-03-07T03:21:14.463Z,80.97
2023-03-07T03:23:42.085Z,80.78
2023-03-07T03:26:11.579Z,80.35
2023-03-07T03:28:40.104Z,80.05
2023-03-07T03:31:10.336Z,80.50
2023-03-07T03:33:39.826Z,79.71
2023-03-07T03:36:09.383Z,79.70
2023-03-07T03:38:37.048Z,79.93
2023-03-07T03:41:06.603Z,79.86
2023-03-07T03:43:35.081Z,79.36
2023-03-07T03:46:02.888Z,79.03
2023-03-07T03:48:30.922Z,79.59
2023-03-07T03:51:04.969Z,79.22
2023-03-07T03:53:33.144Z,78.81
2023-03-07T03:56:05.945Z,79.24
2023-03-07T03:58:33.980Z,79.35
2023-03-07T04:01:02.659Z,79.49
2023-03-07T04:03:30.304Z,78.74
2023-03-07T04:06:03.581Z,77.96
2023-03-07T04:08:31.395Z,78.53
2023-03-07T04:10:59.150Z,78.67
2023-03-07T04:13:26.880Z,78.87
2023-03-07T04:15:54.910Z,79.16
2023-03-07T04:18:22.872Z,78.76
2023-03-07T04:20:51.314Z,79.23
2023-03-07T04:23:21.022Z,78.71
2023-03-07T04:25:49.279Z,79.75
2023-03-07T04:28:17.141Z,80.74
2023-03-07T04:30:44.866Z,80.06
2023-03-07T04:33:13.385Z,80.32
2023-03-07T04:35:41.011Z,80.63
2023-03-07T04:38:08.667Z,80.29
2023-03-07T04:40:37.635Z,80.92
2023-03-07T04:43:05.805Z,80.98
2023-03-07T04:45:35.100Z,81.39
2023-03-07T04:48:02.973Z,81.50
2023-03-07T04:50:30.717Z,81.55
2023-03-07T04:52:58.321Z,81.61
2023-03-07T04:55:25.956Z,81.72
2023-03-07T04:57:57.626Z,81.78
2023-03-07T05:00:25.702Z,81.98
2023-03-07T05:02:53.308Z,82.42
2023-03-07T05:05:20.921Z,82.34
2023-03-07T05:07:48.796Z,82.46
2023-03-07T05:10:16.802Z,82.52
2023-03-07T05:12:44.422Z,83.39
2023-03-07T05:15:13.500Z,83.76
2023-03-07T05:17:41.127Z,83.52
2023-03-07T05:20:11.676Z,83.86
2023-03-07T05:22:39.326Z,84.33
2023-03-07T05:25:07.980Z,84.08
2023-03-07T05:27:35.646Z,84.31
2023-03-07T05:30:03.616Z,85.27
2023-03-07T05:32:32.821Z,85.41
2023-03-07T05:35:00.559Z,85.46
2023-03-07T05:37:56.904Z,84.83
2023-03-07T05:40:24.702Z,84.97
2023-03-07T05:42:52.452Z,85.03
2023-03-07T05:45:21.172Z,85.07
2023-03-07T05:47:50.264Z,85.00
2023-03-07T05:50:19.069Z,84.94
2023-03-07T05:52:46.765Z,85.64
2023-03-07T05:55:14.408Z,85.65
2023-03-07T05:57:42.128Z,85.69
2023-03-07T06:00:11.489Z,86.44
2023-03-07T06:02:39.163Z,86.75
2023-03-07T06:05:08.921Z,87.04
2023-03-07T06:07:36.573Z,87.48
2023-03-07T06:10:04.407Z,87.17
2023-03-07T06:12:32.090Z,87.57
2023-03-07T06:14:59.830Z,87.50
2023-03-07T06:17:27.499Z,87.52
2023-03-07T06:19:55.293Z,87.71
2023-03-07T06:22:24.431Z,87.99
2023-03-07T06:24:52.216Z,87.81
2023-03-07T06:27:19.891Z,87.74
2023-03-07T06:29:47.632Z,87.31
2023-03-07T06:32:15.429Z,87.60
2023-03-07T06:34:43.035Z,87.70
2023-03-07T06:37:10.704Z,87.70
2023-03-07T06:39:39.919Z,87.44
2023-03-07T06:42:07.716Z,86.78
2023-03-07T06:44:35.324Z,86.70
2023-03-07T06:47:02.981Z,86.82
2023-03-07T06:49:30.582Z,86.17
2023-03-07T06:51:58.490Z,86.54
2023-03-07T06:54:26.192Z,86.51
2023-03-07T06:56:55.203Z,85.83
2023-03-07T06:59:22.845Z,86.14
2023-03-07T07:01:50.570Z,85.75
2023-03-07T07:04:18.296Z,85.56
2023-03-07T07:06:45.961Z,83.58
2023-03-07T07:09:14.556Z,83.08
2023-03-07T07:11:42.218Z,82.21
2023-03-07T07:14:11.179Z,82.15
2023-03-07T07:16:38.973Z,81.09
2023-03-07T07:19:06.596Z,81.88
2023-03-07T07:21:34.206Z,81.13
2023-03-07T07:24:01.863Z,80.51
2023-03-07T07:26:29.589Z,81.03
2023-03-07T07:28:57.188Z,79.94
2023-03-07T07:31:26.280Z,77.91
2023-03-07T07:33:54.035Z,77.43
2023-03-07T07:36:23.636Z,77.45
2023-03-07T07:38:51.307Z,77.10
2023-03-07T07:41:19.232Z,76.54
2023-03-07T07:43:48.353Z,74.70
2023-03-07T07:46:16.137Z,75.65
2023-03-07T07:48:47.622Z,74.35
2023-03-07T07:51:15.330Z,74.23
2023-03-07T07:53:43.017Z,73.34
2023-03-07T07:56:10.727Z,72.00
2023-03-07T07:58:38.416Z,71.92
2023-03-07T08:01:14.450Z,69.75
2023-03-07T08:03:42.174Z,70.96
2023-03-07T08:06:11.408Z,68.19
2023-03-07T08:08:39.479Z,71.39
2023-03-07T08:11:07.183Z,67.50
2023-03-07T08:13:34.832Z,69.53
2023-03-07T08:16:10.049Z,68.39
2023-03-07T08:18:37.813Z,68.13
2023-03-07T08:21:05.917Z,66.54
2023-03-07T08:23:35.025Z,67.03
2023-03-07T08:26:05.844Z,66.29
2023-03-07T08:28:33.996Z,66.86
2023-03-07T08:31:07.859Z,64.72
2023-03-07T08:33:35.529Z,66.35
2023-03-07T08:36:03.551Z,64.69
2023-03-07T08:38:31.240Z,65.24
2023-03-07T08:41:02.616Z,63.00
2023-03-07T08:43:30.350Z,62.25
2023-03-07T08:45:58.303Z,62.78
2023-03-07T08:48:26.372Z,63.78
2023-03-07T08:50:55.246Z,60.38
2023-03-07T08:53:23.261Z,62.06
2023-03-07T08:55:51.039Z,60.53
2023-03-07T08:58:20.012Z,62.05
2023-03-07T09:00:47.666Z,59.11
2023-03-07T09:03:15.306Z,60.19
2023-03-07T09:05:42.977Z,58.57
2023-03-07T09:08:10.590Z,62.59
2023-03-07T09:10:38.361Z,57.29
2023-03-07T09:13:06.117Z,61.86
2023-03-07T09:15:35.152Z,57.96
2023-03-07T09:18:02.809Z,58.24
2023-03-07T09:20:30.503Z,57.80
2023-03-07T09:22:58.369Z,56.90
2023-03-07T09:25:26.192Z,57.11
2023-03-07T09:27:54.245Z,53.84
2023-03-07T09:30:22.733Z,58.10
2023-03-07T09:32:51.945Z,58.67
2023-03-07T09:35:19.796Z,59.00
2023-03-07T09:37:47.416Z,56.62
2023-03-07T09:40:19.471Z,55.16
2023-03-07T09:42:56.589Z,53.44
2023-03-07T09:45:38.860Z,56.33
2023-03-07T09:48:47.199Z,53.70
2023-03-07T09:51:18.033Z,54.39
2023-03-07T09:53:48.185Z,53.09
2023-03-07T09:56:21.237Z,55.90
2023-03-07T09:58:54.739Z,52.47
2023-03-07T10:01:25.433Z,53.92
2023-03-07T10:03:59.021Z,52.69
2023-03-07T10:06:30.525Z,54.14
2023-03-07T10:08:59.288Z,55.32
2023-03-07T10:11:32.667Z,53.22
2023-03-07T10:14:18.931Z,53.99
2023-03-07T10:16:50.738Z,51.23
2023-03-07T10:19:26.700Z,52.16
2023-03-07T10:21:58.982Z,54.04
2023-03-07T10:24:37.572Z,48.95
2023-03-07T10:27:07.913Z,55.50
2023-03-07T10:29:41.261Z,53.74
2023-03-07T10:32:24.278Z,51.58
2023-03-07T10:34:57.019Z,49.63
2023-03-07T10:37:34.731Z,50.64
2023-03-07T10:40:04.977Z,55.29
2023-03-07T10:42:36.823Z,51.51
2023-03-07T10:45:04.977Z,51.43
2023-03-07T10:47:32.662Z,53.52
2023-03-07T10:50:10.580Z,52.15
2023-03-07T10:52:41.329Z,49.38
2023-03-07T10:55:31.832Z,49.19
2023-03-07T10:58:13.762Z,49.61
2023-03-07T11:00:41.714Z,50.14
2023-03-07T11:03:23.843Z,47.69
2023-03-07T11:05:52.957Z,51.11
2023-03-07T11:08:29.380Z,51.11
2023-03-07T11:10:57.027Z,49.79
2023-03-07T11:13:25.648Z,48.78
2023-03-07T11:16:02.837Z,48.56
2023-03-07T11:18:40.240Z,48.43
2023-03-07T11:21:28.056Z,49.18
2023-03-07T11:24:01.040Z,49.30
2023-03-07T11:26:32.475Z,49.13
2023-03-07T11:29:08.604Z,49.29
2023-03-07T11:31:43.948Z,50.14
2023-03-07T11:34:23.869Z,50.11
2023-03-07T11:36:57.175Z,49.20
2023-03-07T11:39:33.854Z,48.88
2023-03-07T11:42:04.670Z,50.25
2023-03-07T11:44:36.068Z,53.67
2023-03-07T11:47:14.431Z,49.94
2023-03-07T11:49:46.971Z,47.12
2023-03-07T11:52:28.062Z,51.32
2023-03-07T11:55:03.540Z,49.91
2023-03-07T11:57:45.594Z,50.83
2023-03-07T12:00:21.597Z,50.38
2023-03-07T12:02:58.053Z,48.46
2023-03-07T12:05:43.461Z,47.26
2023-03-07T12:08:36.194Z,46.74
2023-03-07T12:11:12.906Z,47.55
2023-03-07T12:13:46.718Z,46.67
2023-03-07T12:16:20.647Z,50.20
2023-03-07T12:19:01.089Z,46.12
2023-03-07T12:21:42.176Z,47.15
2023-03-07T12:24:16.854Z,46.32
2023-03-07T12:26:51.335Z,48.00
2023-03-07T12:29:22.844Z,46.77
2023-03-07T12:31:53.164Z,46.06
2023-03-07T12:34:26.816Z,46.78
2023-03-07T12:36:57.245Z,48.14
2023-03-07T12:39:30.631Z,47.15
2023-03-07T12:42:01.348Z,49.19
2023-03-07T12:44:34.789Z,46.50
2023-03-07T12:47:08.381Z,45.39
2023-03-07T12:49:49.408Z,48.78
2023-03-07T12:52:33.189Z,45.09
2023-03-07T12:55:08.737Z,46.87
2023-03-07T12:57:41.284Z,50.09
2023-03-07T13:00:11.690Z,51.76
2023-03-07T13:02:43.231Z,48.01
2023-03-07T13:05:19.484Z,46.05
2023-03-07T13:07:48.188Z,46.57
2023-03-07T13:10:19.880Z,48.67
2023-03-07T13:12:48.036Z,50.00
2023-03-07T13:15:50.617Z,46.77
2023-03-07T13:18:29.888Z,47.74
2023-03-07T13:21:33.645Z,48.48
2023-03-07T13:24:44.039Z,46.80
2023-03-07T13:27:17.136Z,46.30
2023-03-07T13:30:07.223Z,46.26
2023-03-07T13:32:57.856Z,45.21
2023-03-07T13:35:53.685Z,49.69
2023-03-07T13:38:32.413Z,47.79
2023-03-07T13:41:00.655Z,46.42
2023-03-07T13:43:57.878Z,45.49
2023-03-07T13:46:51.644Z,45.34
2023-03-07T13:49:49.513Z,45.98
2023-03-07T13:52:32.745Z,46.66
2023-03-07T13:55:01.853Z,46.15
2023-03-07T13:57:35.833Z,43.58
2023-03-07T14:00:15.408Z,46.52
2023-03-07T14:02:44.061Z,48.91
2023-03-07T14:05:12.371Z,46.19
2023-03-07T14:07:41.305Z,45.32
2023-03-07T14:10:22.511Z,45.05
2023-03-07T14:13:21.458Z,46.63
2023-03-07T14:16:05.031Z,44.03
2023-03-07T14:18:43.304Z,46.72
2023-03-07T14:21:15.233Z,43.63
2023-03-07T14:24:05.180Z,46.92
2023-03-07T14:26:35.009Z,47.17
2023-03-07T14:29:04.782Z,47.57
2023-03-07T14:31:39.296Z,45.95
2023-03-07T14:34:17.510Z,46.70
2023-03-07T14:36:46.255Z,44.64
2023-03-07T14:39:15.122Z,44.28
2023-03-07T14:41:47.494Z,46.25
2023-03-07T14:44:32.312Z,46.50
2023-03-07T14:47:12.876Z,46.11
2023-03-07T14:49:46.208Z,43.46
2023-03-07T14:52:28.274Z,46.08
2023-03-07T14:55:00.984Z,44.74
2023-03-07T14:57:33.258Z,46.36
2023-03-07T15:00:09.832Z,44.46
2023-03-07T15:02:46.626Z,45.84
2023-03-07T15:05:17.034Z,44.51
2023-03-07T15:07:46.348Z,44.22
2023-03-07T15:10:17.502Z,46.52
2023-03-07T15:12:46.920Z,44.96
2023-03-07T15:15:25.160Z,46.16
2023-03-07T15:17:56.257Z,45.55
2023-03-07T15:20:25.598Z,44.34
2023-03-07T15:22:53.789Z,44.06
2023-03-07T15:25:25.710Z,45.23
2023-03-07T15:27:59.871Z,45.80
2023-03-07T15:30:29.542Z,46.07
2023-03-07T15:33:13.507Z,44.54
2023-03-07T15:35:41.332Z,44.25
2023-03-07T15:38:15.964Z,45.04
2023-03-07T15:40:44.157Z,45.12
2023-03-07T15:43:25.604Z,46.12
2023-03-07T15:46:03.081Z,46.11
2023-03-07T15:48:37.310Z,44.89
2023-03-07T15:51:07.157Z,46.49
2023-03-07T15:53:37.835Z,46.50
2023-03-07T15:56:07.954Z,47.25
2023-03-07T15:58:36.704Z,45.69
2023-03-07T16:01:09.157Z,46.01
2023-03-07T16:03:49.402Z,46.46
2023-03-07T16:06:36.438Z,47.50
2023-03-07T16:09:05.349Z,47.30
2023-03-07T16:11:33.456Z,47.31
2023-03-07T16:14:01.246Z,46.83
2023-03-07T16:16:30.517Z,47.22
2023-03-07T16:18:59.667Z,47.39
2023-03-07T16:21:27.615Z,47.22
2023-03-07T16:23:55.292Z,46.76
2023-03-07T16:26:24.456Z,47.62
2023-03-07T16:28:53.101Z,48.46
2023-03-07T16:31:21.520Z,46.61
2023-03-07T16:33:49.416Z,49.04
2023-03-07T16:36:19.005Z,49.43
2023-03-07T16:38:47.589Z,48.99
2023-03-07T16:41:17.262Z,49.64
2023-03-07T16:43:45.522Z,48.79
2023-03-07T16:46:15.443Z,48.85
2023-03-07T16:48:43.252Z,49.63
2023-03-07T16:51:14.039Z,49.66
2023-03-07T16:53:43.154Z,49.46
2023-03-07T16:56:17.087Z,50.03
2023-03-07T16:58:44.774Z,50.29
2023-03-07T17:01:14.384Z,49.93
2023-03-07T17:03:42.118Z,50.73
2023-03-07T17:06:13.886Z,51.29
2023-03-07T17:08:42.905Z,51.64
2023-03-07T17:11:18.025Z,51.97
2023-03-07T17:13:46.397Z,51.76
2023-03-07T17:16:15.216Z,51.84
2023-03-07T17:18:43.091Z,52.11
2023-03-07T17:21:13.977Z,52.37
2023-03-07T17:23:44.995Z,52.61
2023-03-07T17:26:17.621Z,51.88
2023-03-07T17:28:45.426Z,52.90
2023-03-07T17:31:13.491Z,52.92
2023-03-07T17:33:41.139Z,53.23
2023-03-07T17:36:10.589Z,52.41
2023-03-07T17:38:38.337Z,53.05
2023-03-07T17:41:07.599Z,53.27
2023-03-07T17:43:35.286Z,53.99
2023-03-07T17:46:02.985Z,53.76
2023-03-07T17:48:30.655Z,53.35
2023-03-07T17:50:58.309Z,53.90
2023-03-07T17:53:26.012Z,54.46
2023-03-07T17:55:53.653Z,54.23
2023-03-07T17:58:22.694Z,54.32
2023-03-07T18:00:50.327Z,54.93
2023-03-07T18:03:17.980Z,54.60
2023-03-07T18:05:45.649Z,54.97
2023-03-07T18:08:13.309Z,56.29
2023-03-07T18:10:40.928Z,56.70
2023-03-07T18:13:09.822Z,56.71
2023-03-07T18:15:39.221Z,56.66
2023-03-07T18:18:07.036Z,56.92
2023-03-07T18:20:34.713Z,58.25
2023-03-07T18:23:02.345Z,58.02
2023-03-07T18:25:30.170Z,58.22
2023-03-07T18:27:57.878Z,58.41
2023-03-07T18:30:25.736Z,58.73
2023-03-07T18:32:55.448Z,59.18
2023-03-07T18:35:23.487Z,59.17
2023-03-07T18:37:51.109Z,59.94
2023-03-07T18:40:22.007Z,59.95
2023-03-07T18:42:49.643Z,59.89
2023-03-07T18:45:17.398Z,59.92
2023-03-07T18:47:45.149Z,60.64
2023-03-07T18:50:14.197Z,60.86
2023-03-07T18:52:41.789Z,61.32
2023-03-07T18:55:10.376Z,61.47
2023-03-07T18:57:38.007Z,61.88
2023-03-07T19:00:07.095Z,61.52
2023-03-07T19:02:34.796Z,61.91
2023-03-07T19:05:02.426Z,61.81
2023-03-07T19:07:31.956Z,62.00
2023-03-07T19:09:59.619Z,62.37
2023-03-07T19:12:27.360Z,62.62
2023-03-07T19:14:55.103Z,62.88
2023-03-07T19:17:22.743Z,63.25
2023-03-07T19:19:52.904Z,63.54
2023-03-07T19:22:25.853Z,63.61
2023-03-07T19:24:56.073Z,63.59
2023-03-07T19:27:24.206Z,63.97
2023-03-07T19:29:53.319Z,64.33
2023-03-07T19:32:21.028Z,64.34
2023-03-07T19:34:49.669Z,64.41
2023-03-07T19:37:17.393Z,66.18
2023-03-07T19:39:44.992Z,68.23
2023-03-07T19:42:14.033Z,68.31
2023-03-07T19:44:41.741Z,67.44
2023-03-07T19:47:09.374Z,67.65
2023-03-07T19:49:36.973Z,67.95
2023-03-07T19:52:04.894Z,68.08
2023-03-07T19:54:32.866Z,68.18
2023-03-07T19:57:00.585Z,69.02
2023-03-07T19:59:29.624Z,69.36
2023-03-07T20:01:57.288Z,69.81
2023-03-07T20:04:24.954Z,69.95
2023-03-07T20:06:52.579Z,70.18
2023-03-07T20:09:20.256Z,70.59
2023-03-07T20:11:47.842Z,69.36
2023-03-07T20:14:15.511Z,71.59
2023-03-07T20:16:44.500Z,74.22
2023-03-07T20:19:12.137Z,77.81
2023-03-07T20:21:42.366Z,78.92
2023-03-07T20:24:10.212Z,78.46
2023-03-07T20:26:39.109Z,79.13
2023-03-07T20:29:07.881Z,79.18
2023-03-07T20:31:36.421Z,79.21
2023-03-07T20:34:05.615Z,79.75
2023-03-07T20:36:34.656Z,80.35
2023-03-07T20:39:03.631Z,79.98
2023-03-07T20:41:32.578Z,79.36
2023-03-07T20:44:02.314Z,78.80
2023-03-07T20:46:31.184Z,77.91
2023-03-07T20:49:00.235Z,75.82
2023-03-07T20:51:31.415Z,75.45
2023-03-07T20:54:00.308Z,74.35
2023-03-07T20:56:29.674Z,73.68
2023-03-07T20:58:58.121Z,72.82
2023-03-07T21:01:26.955Z,72.59
2023-03-07T21:03:55.134Z,72.95
2023-03-07T21:06:22.963Z,72.45
2023-03-07T21:08:51.945Z,70.63
2023-03-07T21:11:21.626Z,72.40
2023-03-07T21:13:50.515Z,72.73
2023-03-07T21:16:20.411Z,71.80
2023-03-07T21:18:51.071Z,71.87
2023-03-07T21:21:20.346Z,72.26
2023-03-07T21:23:48.429Z,72.42
2023-03-07T21:26:19.214Z,72.19
2023-03-07T21:28:47.399Z,72.63
2023-03-07T21:31:17.933Z,71.82
2023-03-07T21:33:47.291Z,71.87
2023-03-07T21:36:15.889Z,71.90
2023-03-07T21:38:44.836Z,71.97
2023-03-07T21:41:12.664Z,71.76
2023-03-07T21:43:42.314Z,72.56
2023-03-07T21:46:11.672Z,73.01
2023-03-07T21:48:39.583Z,73.07
2023-03-07T21:51:07.882Z,73.03
2023-03-07T21:53:35.825Z,73.60
2023-03-07T21:56:05.888Z,72.98
2023-03-07T21:58:33.942Z,72.21
2023-03-07T22:01:10.319Z,71.96
2023-03-07T22:03:59.962Z,72.57
2023-03-07T22:06:28.809Z,72.78
2023-03-07T22:08:56.548Z,72.04
2023-03-07T22:11:24.187Z,72.35
2023-03-07T22:13:51.862Z,72.48
2023-03-07T22:16:21.635Z,71.89
2023-03-07T22:18:53.566Z,72.51
2023-03-07T22:21:21.443Z,71.84
2023-03-07T22:23:49.086Z,71.38
2023-03-07T22:26:16.689Z,71.39
2023-03-07T22:28:44.317Z,72.28
2023-03-07T22:31:13.315Z,71.94
2023-03-07T22:33:42.594Z,71.42
2023-03-07T22:36:13.081Z,71.26
2023-03-07T22:38:41.641Z,71.84
2023-03-07T22:41:12.333Z,71.91
2023-03-07T22:43:40.291Z,71.82
2023-03-07T22:46:08.552Z,71.20
2023-03-07T22:48:36.639Z,71.87
2023-03-07T22:51:06.025Z,70.74
2023-03-07T22:53:35.490Z,71.28
2023-03-07T22:56:03.185Z,71.32
2023-03-07T22:58:30.872Z,71.23
2023-03-07T23:00:58.615Z,71.03
2023-03-07T23:03:26.662Z,70.60
2023-03-07T23:05:54.300Z,71.27
2023-03-07T23:08:23.260Z,70.53
2023-03-07T23:10:50.907Z,70.29
2023-03-07T23:13:18.536Z,70.70
2023-03-07T23:15:46.185Z,70.80
2023-03-07T23:18:13.842Z,70.61
2023-03-07T23:20:41.443Z,70.91
2023-03-07T23:23:09.422Z,70.73
2023-03-07T23:25:42.261Z,70.34
2023-03-07T23:28:10.230Z,70.62
2023-03-07T23:30:38.411Z,70.55
2023-03-07T23:33:06.482Z,70.61
2023-03-07T23:35:34.449Z,70.36
2023-03-07T23:38:02.288Z,70.03
2023-03-07T23:40:30.072Z,70.85
2023-03-07T23:42:59.359Z,70.40
2023-03-07T23:45:27.100Z,69.51
2023-03-07T23:47:54.758Z,69.74
2023-03-07T23:50:22.605Z,70.33
2023-03-07T23:52:50.284Z,70.25
2023-03-07T23:55:18.034Z,69.31
2023-03-07T23:57:47.721Z,69.41
